sensor_id;sensor_type;location;lat;lon;timestamp;pressure;altitude;pressure_sealevel;temperature;humidity
33949;BME280;20229;49.856;19.030;2024-01-07T00:00:53;100871.23;;;0.76;100.00
33949;BME280;20229;49.856;19.030;2024-01-07T00:06:12;100869.43;;;0.77;100.00
33949;BME280;20229;49.856;19.030;2024-01-07T00:11:26;100871.34;;;0.67;100.00
33949;BME280;20229;49.856;19.030;2024-01-07T00:16:40;100869.75;;;0.54;100.00
33949;BME280;20229;49.856;19.030;2024-01-07T00:21:55;100877.80;;;0.54;100.00
33949;BME280;20229;49.856;19.030;2024-01-07T00:27:10;100876.95;;;0.48;100.00
33949;BME280;20229;49.856;19.030;2024-01-07T00:32:25;100895.76;;;0.50;100.00
33949;BME280;20229;49.856;19.030;2024-01-07T00:37:40;100876.20;;;0.37;100.00
33949;BME280;20229;49.856;19.030;2024-01-07T00:42:54;100894.13;;;0.35;100.00
33949;BME280;20229;49.856;19.030;2024-01-07T00:48:08;100901.33;;;0.32;100.00
33949;BME280;20229;49.856;19.030;2024-01-07T00:53:22;100903.16;;;0.28;100.00
33949;BME280;20229;49.856;19.030;2024-01-07T00:58:37;100908.62;;;0.22;100.00
33949;BME280;20229;49.856;19.030;2024-01-07T01:03:51;100915.80;;;0.17;100.00
33949;BME280;20229;49.856;19.030;2024-01-07T01:09:06;100926.58;;;0.15;100.00
33949;BME280;20229;49.856;19.030;2024-01-07T01:14:19;100925.70;;;0.15;100.00
33949;BME280;20229;49.856;19.030;2024-01-07T01:19:34;100920.35;;;0.12;100.00
33949;BME280;20229;49.856;19.030;2024-01-07T01:24:49;100927.52;;;0.10;100.00
33949;BME280;20229;49.856;19.030;2024-01-07T01:30:07;100933.00;;;0.01;100.00
33949;BME280;20229;49.856;19.030;2024-01-07T01:35:23;100925.88;;;-0.05;100.00
33949;BME280;20229;49.856;19.030;2024-01-07T01:40:37;100926.83;;;-0.09;100.00
33949;BME280;20229;49.856;19.030;2024-01-07T01:45:52;100936.66;;;-0.11;100.00
33949;BME280;20229;49.856;19.030;2024-01-07T01:51:07;100941.20;;;-0.18;100.00
33949;BME280;20229;49.856;19.030;2024-01-07T01:56:22;100940.33;;;-0.20;100.00
33949;BME280;20229;49.856;19.030;2024-01-07T02:01:37;100935.03;;;-0.28;100.00
33949;BME280;20229;49.856;19.030;2024-01-07T02:06:51;100938.65;;;-0.33;100.00
33949;BME280;20229;49.856;19.030;2024-01-07T02:12:07;100945.87;;;-0.41;100.00
33949;BME280;20229;49.856;19.030;2024-01-07T02:17:25;100941.42;;;-0.44;100.00
33949;BME280;20229;49.856;19.030;2024-01-07T02:22:39;100940.57;;;-0.51;100.00
33949;BME280;20229;49.856;19.030;2024-01-07T02:27:54;100936.13;;;-0.55;100.00
33949;BME280;20229;49.856;19.030;2024-01-07T02:33:08;100940.67;;;-0.63;100.00
33949;BME280;20229;49.856;19.030;2024-01-07T02:38:25;100939.81;;;-0.66;100.00
33949;BME280;20229;49.856;19.030;2024-01-07T02:43:38;100935.34;;;-0.69;100.00
33949;BME280;20229;49.856;19.030;2024-01-07T02:48:52;100943.41;;;-0.70;100.00
33949;BME280;20229;49.856;19.030;2024-01-07T02:54:06;100954.13;;;-0.72;100.00
33949;BME280;20229;49.856;19.030;2024-01-07T02:59:20;100950.57;;;-0.76;100.00
33949;BME280;20229;49.856;19.030;2024-01-07T03:04:34;100947.04;;;-0.78;100.00
33949;BME280;20229;49.856;19.030;2024-01-07T03:09:49;100946.16;;;-0.81;100.00
33949;BME280;20229;49.856;19.030;2024-01-07T03:15:04;100954.20;;;-0.83;100.00
33949;BME280;20229;49.856;19.030;2024-01-07T03:20:21;100956.89;;;-0.81;100.00
33949;BME280;20229;49.856;19.030;2024-01-07T03:25:35;100955.99;;;-0.83;100.00
33949;BME280;20229;49.856;19.030;2024-01-07T03:30:50;100948.84;;;-0.86;100.00
33949;BME280;20229;49.856;19.030;2024-01-07T03:36:10;100947.99;;;-0.92;100.00
33949;BME280;20229;49.856;19.030;2024-01-07T03:41:26;100960.51;;;-0.91;100.00
33949;BME280;20229;49.856;19.030;2024-01-07T03:46:40;100946.25;;;-0.95;100.00
33949;BME280;20229;49.856;19.030;2024-01-07T03:51:54;100951.60;;;-1.00;100.00
33949;BME280;20229;49.856;19.030;2024-01-07T03:57:08;100962.38;;;-1.06;100.00
33949;BME280;20229;49.856;19.030;2024-01-07T04:02:22;100973.98;;;-1.08;100.00
33949;BME280;20229;49.856;19.030;2024-01-07T04:07:38;100980.23;;;-1.08;100.00
33949;BME280;20229;49.856;19.030;2024-01-07T04:12:52;100968.62;;;-1.10;100.00
33949;BME280;20229;49.856;19.030;2024-01-07T04:18:06;100975.81;;;-1.18;100.00
33949;BME280;20229;49.856;19.030;2024-01-07T04:23:20;100976.71;;;-1.16;100.00
33949;BME280;20229;49.856;19.030;2024-01-07T04:28:34;100988.34;;;-1.20;100.00
33949;BME280;20229;49.856;19.030;2024-01-07T04:33:49;100991.89;;;-1.21;100.00
33949;BME280;20229;49.856;19.030;2024-01-07T04:39:10;100991.90;;;-1.24;100.00
33949;BME280;20229;49.856;19.030;2024-01-07T04:44:25;101000.84;;;-1.28;100.00
33949;BME280;20229;49.856;19.030;2024-01-07T04:49:39;101014.23;;;-1.28;100.00
33949;BME280;20229;49.856;19.030;2024-01-07T04:54:53;101011.56;;;-1.31;100.00
33949;BME280;20229;49.856;19.030;2024-01-07T05:00:09;101022.30;;;-1.36;100.00
33949;BME280;20229;49.856;19.030;2024-01-07T05:05:23;101021.41;;;-1.42;100.00
33949;BME280;20229;49.856;19.030;2024-01-07T05:10:39;101031.25;;;-1.46;100.00
33949;BME280;20229;49.856;19.030;2024-01-07T05:15:53;101042.88;;;-1.52;100.00
33949;BME280;20229;49.856;19.030;2024-01-07T05:21:07;101033.98;;;-1.69;100.00
33949;BME280;20229;49.856;19.030;2024-01-07T05:26:22;101031.30;;;-1.69;100.00
33949;BME280;20229;49.856;19.030;2024-01-07T05:31:36;101041.11;;;-1.77;100.00
33949;BME280;20229;49.856;19.030;2024-01-07T05:36:51;101050.04;;;-1.81;100.00
33949;BME280;20229;49.856;19.030;2024-01-07T05:42:05;101050.02;;;-1.87;99.46
33949;BME280;20229;49.856;19.030;2024-01-07T05:47:19;101064.32;;;-1.90;100.00
33949;BME280;20229;49.856;19.030;2024-01-07T05:52:34;101057.19;;;-1.94;99.88
33949;BME280;20229;49.856;19.030;2024-01-07T05:57:48;101063.44;;;-1.90;100.00
33949;BME280;20229;49.856;19.030;2024-01-07T06:03:02;101075.89;;;-1.91;100.00
33949;BME280;20229;49.856;19.030;2024-01-07T06:08:16;101075.00;;;-1.92;100.00
33949;BME280;20229;49.856;19.030;2024-01-07T06:13:30;101083.02;;;-1.95;100.00
33949;BME280;20229;49.856;19.030;2024-01-07T06:18:46;101092.85;;;-1.97;100.00
33949;BME280;20229;49.856;19.030;2024-01-07T06:24:00;101098.20;;;-2.04;99.11
33949;BME280;20229;49.856;19.030;2024-01-07T06:29:18;101099.97;;;-2.11;98.73
33949;BME280;20229;49.856;19.030;2024-01-07T06:34:32;101109.76;;;-2.13;99.92
33949;BME280;20229;49.856;19.030;2024-01-07T06:39:47;101115.11;;;-2.13;100.00
33949;BME280;20229;49.856;19.030;2024-01-07T06:45:02;101122.27;;;-2.12;100.00
33949;BME280;20229;49.856;19.030;2024-01-07T06:50:16;101118.70;;;-2.11;100.00
33949;BME280;20229;49.856;19.030;2024-01-07T06:55:33;101131.17;;;-2.10;99.83
33949;BME280;20229;49.856;19.030;2024-01-07T07:00:47;101135.64;;;-2.12;99.47
33949;BME280;20229;49.856;19.030;2024-01-07T07:06:01;101149.88;;;-2.16;99.23
33949;BME280;20229;49.856;19.030;2024-01-07T07:11:16;101154.35;;;-2.15;98.94
33949;BME280;20229;49.856;19.030;2024-01-07T07:16:30;101152.55;;;-2.18;99.20
33949;BME280;20229;49.856;19.030;2024-01-07T07:21:46;101157.00;;;-2.17;98.70
33949;BME280;20229;49.856;19.030;2024-01-07T07:27:00;101162.37;;;-2.18;98.67
33949;BME280;20229;49.856;19.030;2024-01-07T07:32:15;101165.03;;;-2.17;98.89
33949;BME280;20229;49.856;19.030;2024-01-07T07:37:29;101165.02;;;-2.21;98.68
33949;BME280;20229;49.856;19.030;2024-01-07T07:42:43;101165.02;;;-2.20;98.32
33949;BME280;20229;49.856;19.030;2024-01-07T07:47:58;101178.40;;;-2.17;98.94
33949;BME280;20229;49.856;19.030;2024-01-07T07:53:12;101177.54;;;-2.15;97.68
33949;BME280;20229;49.856;19.030;2024-01-07T07:58:26;101180.20;;;-2.14;98.31
33949;BME280;20229;49.856;19.030;2024-01-07T08:03:40;101180.23;;;-2.08;98.25
33949;BME280;20229;49.856;19.030;2024-01-07T08:08:55;101193.62;;;-2.05;98.31
33949;BME280;20229;49.856;19.030;2024-01-07T08:14:08;101195.38;;;-2.02;98.43
33949;BME280;20229;49.856;19.030;2024-01-07T08:19:22;101198.09;;;-1.98;98.61
33949;BME280;20229;49.856;19.030;2024-01-07T08:24:38;101197.20;;;-1.89;98.49
33949;BME280;20229;49.856;19.030;2024-01-07T08:29:53;101207.91;;;-1.90;98.11
33949;BME280;20229;49.856;19.030;2024-01-07T08:35:08;101207.02;;;-1.89;97.11
33949;BME280;20229;49.856;19.030;2024-01-07T08:40:23;101219.48;;;-1.92;97.40
33949;BME280;20229;49.856;19.030;2024-01-07T08:45:38;101220.37;;;-1.96;96.04
33949;BME280;20229;49.856;19.030;2024-01-07T08:50:52;101231.06;;;-1.99;95.86
33949;BME280;20229;49.856;19.030;2024-01-07T08:56:07;101233.77;;;-1.93;96.41
33949;BME280;20229;49.856;19.030;2024-01-07T09:01:22;101235.55;;;-1.88;96.38
33949;BME280;20229;49.856;19.030;2024-01-07T09:06:37;101230.23;;;-1.82;96.05
33949;BME280;20229;49.856;19.030;2024-01-07T09:11:52;101239.16;;;-1.83;96.27
33949;BME280;20229;49.856;19.030;2024-01-07T09:17:06;101240.95;;;-1.79;95.93
33949;BME280;20229;49.856;19.030;2024-01-07T09:22:20;101238.27;;;-1.75;96.25
33949;BME280;20229;49.856;19.030;2024-01-07T09:27:35;101240.96;;;-1.76;94.90
33949;BME280;20229;49.856;19.030;2024-01-07T09:32:49;101240.96;;;-1.76;95.13
33949;BME280;20229;49.856;19.030;2024-01-07T09:38:04;101249.88;;;-1.71;95.18
33949;BME280;20229;49.856;19.030;2024-01-07T09:43:17;101246.33;;;-1.69;95.16
33949;BME280;20229;49.856;19.030;2024-01-07T09:48:32;101238.30;;;-1.61;94.08
33949;BME280;20229;49.856;19.030;2024-01-07T09:53:48;101235.65;;;-1.55;94.63
33949;BME280;20229;49.856;19.030;2024-01-07T09:59:03;101235.63;;;-1.46;94.30
33949;BME280;20229;49.856;19.030;2024-01-07T10:04:17;101238.30;;;-1.49;92.90
33949;BME280;20229;49.856;19.030;2024-01-07T10:10:57;101230.27;;;-1.49;92.88
33949;BME280;20229;49.856;19.030;2024-01-07T10:16:22;101231.18;;;-1.47;93.43
33949;BME280;20229;49.856;19.030;2024-01-07T10:21:36;101224.04;;;-1.38;93.23
33949;BME280;20229;49.856;19.030;2024-01-07T10:26:50;101231.18;;;-1.36;92.18
33949;BME280;20229;49.856;19.030;2024-01-07T10:32:04;101234.77;;;-1.32;92.48
33949;BME280;20229;49.856;19.030;2024-01-07T10:37:19;101235.67;;;-1.33;91.96
33949;BME280;20229;49.856;19.030;2024-01-07T10:42:34;101233.87;;;-1.25;91.79
33949;BME280;20229;49.856;19.030;2024-01-07T10:47:49;101243.70;;;-1.26;90.76
33949;BME280;20229;49.856;19.030;2024-01-07T10:53:07;101231.19;;;-1.14;90.90
33949;BME280;20229;49.856;19.030;2024-01-07T10:58:25;101224.96;;;-1.06;90.76
33949;BME280;20229;49.856;19.030;2024-01-07T11:03:47;101228.50;;;-1.01;90.39
33949;BME280;20229;49.856;19.030;2024-01-07T11:14:40;101240.12;;;-1.08;89.58
33949;BME280;20229;49.856;19.030;2024-01-07T11:20:12;101242.80;;;-1.08;90.59
33949;BME280;20229;49.856;19.030;2024-01-07T11:25:31;101249.04;;;-1.00;88.77
33949;BME280;20229;49.856;19.030;2024-01-07T11:30:46;101243.67;;;-0.89;89.81
33949;BME280;20229;49.856;19.030;2024-01-07T11:36:05;101252.62;;;-0.81;90.34
33949;BME280;20229;49.856;19.030;2024-01-07T11:41:21;101249.04;;;-0.89;89.16
33949;BME280;20229;49.856;19.030;2024-01-07T11:46:36;101254.41;;;-1.07;89.49
33949;BME280;20229;49.856;19.030;2024-01-07T11:51:50;101257.09;;;-1.07;90.26
33949;BME280;20229;49.856;19.030;2024-01-07T11:57:06;101266.02;;;-1.10;89.02
33949;BME280;20229;49.856;19.030;2024-01-07T12:02:20;101260.65;;;-1.10;90.01
33949;BME280;20229;49.856;19.030;2024-01-07T12:07:34;101251.75;;;-1.16;90.16
33949;BME280;20229;49.856;19.030;2024-01-07T12:12:50;101255.31;;;-1.24;90.29
33949;BME280;20229;49.856;19.030;2024-01-07T12:18:05;101264.22;;;-1.45;89.93
33949;BME280;20229;49.856;19.030;2024-01-07T12:23:22;101265.97;;;-1.56;90.63
33949;BME280;20229;49.856;19.030;2024-01-07T12:28:36;101265.08;;;-1.53;91.42
33949;BME280;20229;49.856;19.030;2024-01-07T12:33:51;101269.54;;;-1.57;91.98
33949;BME280;20229;49.856;19.030;2024-01-07T12:39:07;101279.37;;;-1.54;91.64
33949;BME280;20229;49.856;19.030;2024-01-07T12:44:20;101280.26;;;-1.54;92.27
33949;BME280;20229;49.856;19.030;2024-01-07T12:49:34;101295.44;;;-1.54;91.58
33949;BME280;20229;49.856;19.030;2024-01-07T12:54:48;101291.84;;;-1.61;91.70
33949;BME280;20229;49.856;19.030;2024-01-07T13:00:04;101293.63;;;-1.60;91.52
33949;BME280;20229;49.856;19.030;2024-01-07T13:05:22;101294.49;;;-1.67;90.58
33949;BME280;20229;49.856;19.030;2024-01-07T13:10:38;101303.43;;;-1.68;90.74
33949;BME280;20229;49.856;19.030;2024-01-07T13:15:52;101312.32;;;-1.74;90.54
33949;BME280;20229;49.856;19.030;2024-01-07T13:21:06;101317.67;;;-1.75;91.74
33949;BME280;20229;49.856;19.030;2024-01-07T13:26:23;101316.77;;;-1.77;91.19
33949;BME280;20229;49.856;19.030;2024-01-07T13:31:37;101328.34;;;-1.84;90.52
33949;BME280;20229;49.856;19.030;2024-01-07T13:36:51;101328.34;;;-1.90;91.77
33949;BME280;20229;49.856;19.030;2024-01-07T13:42:05;101334.55;;;-1.92;91.96
33949;BME280;20229;49.856;19.030;2024-01-07T13:47:19;101329.14;;;-2.02;91.87
33949;BME280;20229;49.856;19.030;2024-01-07T13:52:35;101338.07;;;-2.05;92.45
33949;BME280;20229;49.856;19.030;2024-01-07T13:57:48;101342.51;;;-2.07;93.06
33949;BME280;20229;49.856;19.030;2024-01-07T14:03:04;101349.65;;;-2.07;92.83
33949;BME280;20229;49.856;19.030;2024-01-07T14:08:19;101365.66;;;-2.15;92.65
33949;BME280;20229;49.856;19.030;2024-01-07T14:13:33;101359.34;;;-2.23;91.47
33949;BME280;20229;49.856;19.030;2024-01-07T14:18:47;101370.02;;;-2.29;91.85
33949;BME280;20229;49.856;19.030;2024-01-07T14:24:01;101370.87;;;-2.36;91.26
33949;BME280;20229;49.856;19.030;2024-01-07T14:29:16;101385.05;;;-2.45;91.22
33949;BME280;20229;49.856;19.030;2024-01-07T14:34:30;101387.66;;;-2.51;90.75
33949;BME280;20229;49.856;19.030;2024-01-07T14:39:45;101385.87;;;-2.57;90.83
33949;BME280;20229;49.856;19.030;2024-01-07T14:44:59;101396.52;;;-2.60;91.05
33949;BME280;20229;49.856;19.030;2024-01-07T14:50:13;101403.62;;;-2.63;90.80
33949;BME280;20229;49.856;19.030;2024-01-07T14:55:27;101400.91;;;-2.65;90.95
33949;BME280;20229;49.856;19.030;2024-01-07T15:00:41;101405.34;;;-2.70;91.29
33949;BME280;20229;49.856;19.030;2024-01-07T15:05:57;101405.31;;;-2.73;91.41
33949;BME280;20229;49.856;19.030;2024-01-07T15:11:11;101411.51;;;-2.77;91.33
33949;BME280;20229;49.856;19.030;2024-01-07T15:16:25;101408.81;;;-2.82;91.25
33949;BME280;20229;49.856;19.030;2024-01-07T15:21:42;101416.79;;;-2.83;92.56
33949;BME280;20229;49.856;19.030;2024-01-07T15:26:56;101417.67;;;-2.83;92.24
33949;BME280;20229;49.856;19.030;2024-01-07T15:32:10;101434.56;;;-2.89;91.62
33949;BME280;20229;49.856;19.030;2024-01-07T15:37:24;101434.53;;;-2.92;92.12
33949;BME280;20229;49.856;19.030;2024-01-07T15:42:38;101435.38;;;-2.96;92.22
33949;BME280;20229;49.856;19.030;2024-01-07T15:47:52;101446.96;;;-2.97;92.21
33949;BME280;20229;49.856;19.030;2024-01-07T15:53:07;101441.55;;;-3.01;92.10
33949;BME280;20229;49.856;19.030;2024-01-07T15:58:21;101457.54;;;-3.06;91.43
33949;BME280;20229;49.856;19.030;2024-01-07T16:03:35;101457.45;;;-3.14;91.58
33949;BME280;20229;49.856;19.030;2024-01-07T16:08:50;101460.09;;;-3.15;91.83
33949;BME280;20229;49.856;19.030;2024-01-07T16:14:04;101473.40;;;-3.18;91.82
33949;BME280;20229;49.856;19.030;2024-01-07T16:19:19;101488.48;;;-3.22;91.22
33949;BME280;20229;49.856;19.030;2024-01-07T16:24:33;101492.89;;;-3.25;91.20
33949;BME280;20229;49.856;19.030;2024-01-07T16:29:47;101484.88;;;-3.27;91.90
33949;BME280;20229;49.856;19.030;2024-01-07T16:35:01;101499.08;;;-3.29;91.96
33949;BME280;20229;49.856;19.030;2024-01-07T16:40:15;101495.47;;;-3.34;91.71
33949;BME280;20229;49.856;19.030;2024-01-07T16:45:29;101506.09;;;-3.38;92.34
33949;BME280;20229;49.856;19.030;2024-01-07T16:50:43;101514.12;;;-3.36;92.24
33949;BME280;20229;49.856;19.030;2024-01-07T16:55:57;101522.07;;;-3.41;92.09
33949;BME280;20229;49.856;19.030;2024-01-07T17:01:12;101512.27;;;-3.42;91.74
33949;BME280;20229;49.856;19.030;2024-01-07T17:06:26;101516.60;;;-3.50;91.24
33949;BME280;20229;49.856;19.030;2024-01-07T17:11:45;101528.15;;;-3.51;91.69
33949;BME280;20229;49.856;19.030;2024-01-07T17:17:03;101534.34;;;-3.55;91.70
33949;BME280;20229;49.856;19.030;2024-01-07T17:22:17;101538.73;;;-3.57;91.99
33949;BME280;20229;49.856;19.030;2024-01-07T17:27:31;101550.23;;;-3.63;91.55
33949;BME280;20229;49.856;19.030;2024-01-07T17:32:45;101552.85;;;-3.67;91.65
33949;BME280;20229;49.856;19.030;2024-01-07T17:37:59;101565.20;;;-3.72;91.29
33949;BME280;20229;49.856;19.030;2024-01-07T17:43:13;101566.92;;;-3.77;91.56
33949;BME280;20229;49.856;19.030;2024-01-07T17:48:27;101575.74;;;-3.81;91.61
33949;BME280;20229;49.856;19.030;2024-01-07T17:53:43;101573.03;;;-3.83;91.70
33949;BME280;20229;49.856;19.030;2024-01-07T17:58:57;101587.98;;;-3.93;90.95
33949;BME280;20229;49.856;19.030;2024-01-07T18:04:11;101590.59;;;-3.97;91.05
33949;BME280;20229;49.856;19.030;2024-01-07T18:09:25;101601.19;;;-4.02;91.61
33949;BME280;20229;49.856;19.030;2024-01-07T18:14:40;101602.02;;;-4.03;91.64
33949;BME280;20229;49.856;19.030;2024-01-07T18:19:55;101611.73;;;-4.08;92.21
33949;BME280;20229;49.856;19.030;2024-01-07T18:25:09;101614.41;;;-4.08;92.19
33949;BME280;20229;49.856;19.030;2024-01-07T18:30:23;101618.79;;;-4.10;92.71
33949;BME280;20229;49.856;19.030;2024-01-07T18:35:37;101626.80;;;-4.10;92.90
33949;BME280;20229;49.856;19.030;2024-01-07T18:40:52;101627.73;;;-4.10;92.55
33949;BME280;20229;49.856;19.030;2024-01-07T18:46:10;101631.18;;;-4.14;92.64
33949;BME280;20229;49.856;19.030;2024-01-07T18:51:24;101646.19;;;-4.20;92.82
33949;BME280;20229;49.856;19.030;2024-01-07T18:56:38;101651.40;;;-4.26;92.63
33949;BME280;20229;49.856;19.030;2024-01-07T19:01:52;101660.28;;;-4.27;93.44
33949;BME280;20229;49.856;19.030;2024-01-07T19:07:06;101654.95;;;-4.27;93.10
33949;BME280;20229;49.856;19.030;2024-01-07T19:12:20;101666.43;;;-4.30;93.17
33949;BME280;20229;49.856;19.030;2024-01-07T19:17:35;101668.16;;;-4.32;92.77
33949;BME280;20229;49.856;19.030;2024-01-07T19:22:57;101675.26;;;-4.33;93.33
33949;BME280;20229;49.856;19.030;2024-01-07T19:28:11;101679.72;;;-4.32;93.49
33949;BME280;20229;49.856;19.030;2024-01-07T19:33:26;101687.62;;;-4.38;92.44
33949;BME280;20229;49.856;19.030;2024-01-07T19:38:40;101691.13;;;-4.39;92.40
33949;BME280;20229;49.856;19.030;2024-01-07T19:43:55;101694.66;;;-4.40;92.08
33949;BME280;20229;49.856;19.030;2024-01-07T19:49:09;101699.91;;;-4.44;92.23
33949;BME280;20229;49.856;19.030;2024-01-07T19:54:25;101706.01;;;-4.50;92.37
33949;BME280;20229;49.856;19.030;2024-01-07T19:59:39;101721.08;;;-4.52;92.72
33949;BME280;20229;49.856;19.030;2024-01-07T20:04:56;101729.08;;;-4.52;92.88
33949;BME280;20229;49.856;19.030;2024-01-07T20:10:12;101723.75;;;-4.52;92.50
33949;BME280;20229;49.856;19.030;2024-01-07T20:15:27;101735.17;;;-4.56;92.48
33949;BME280;20229;49.856;19.030;2024-01-07T20:20:42;101729.76;;;-4.61;92.55
33949;BME280;20229;49.856;19.030;2024-01-07T20:26:03;101741.23;;;-4.63;92.22
33949;BME280;20229;49.856;19.030;2024-01-07T20:31:17;101743.87;;;-4.66;91.96
33949;BME280;20229;49.856;19.030;2024-01-07T20:36:31;101753.55;;;-4.70;92.28
33949;BME280;20229;49.856;19.030;2024-01-07T20:41:45;101758.75;;;-4.74;90.79
33949;BME280;20229;49.856;19.030;2024-01-07T20:47:03;101763.17;;;-4.76;91.18
33949;BME280;20229;49.856;19.030;2024-01-07T20:52:17;101770.27;;;-4.77;90.92
33949;BME280;20229;49.856;19.030;2024-01-07T20:57:34;101768.45;;;-4.78;91.01
33949;BME280;20229;49.856;19.030;2024-01-07T21:02:48;101775.52;;;-4.80;90.62
33949;BME280;20229;49.856;19.030;2024-01-07T21:08:03;101783.45;;;-4.82;91.13
33949;BME280;20229;49.856;19.030;2024-01-07T21:13:17;101780.71;;;-4.85;90.71
33949;BME280;20229;49.856;19.030;2024-01-07T21:18:31;101787.80;;;-4.85;91.28
33949;BME280;20229;49.856;19.030;2024-01-07T21:23:47;101787.88;;;-4.84;91.45
33949;BME280;20229;49.856;19.030;2024-01-07T21:29:02;101785.20;;;-4.84;91.68
33949;BME280;20229;49.856;19.030;2024-01-07T21:34:16;101781.59;;;-4.86;91.52
33949;BME280;20229;49.856;19.030;2024-01-07T21:39:30;101788.63;;;-4.88;91.56
33949;BME280;20229;49.856;19.030;2024-01-07T21:44:44;101798.37;;;-4.90;91.29
33949;BME280;20229;49.856;19.030;2024-01-07T21:49:58;101802.73;;;-4.92;91.38
33949;BME280;20229;49.856;19.030;2024-01-07T21:55:12;101808.95;;;-4.93;91.14
33949;BME280;20229;49.856;19.030;2024-01-07T22:00:26;101806.27;;;-4.93;91.17
33949;BME280;20229;49.856;19.030;2024-01-07T22:05:40;101813.29;;;-4.96;90.87
33949;BME280;20229;49.856;19.030;2024-01-07T22:10:57;101811.31;;;-5.05;90.79
33949;BME280;20229;49.856;19.030;2024-01-07T22:16:11;101815.72;;;-5.06;90.45
33949;BME280;20229;49.856;19.030;2024-01-07T22:21:25;101814.81;;;-5.06;91.06
33949;BME280;20229;49.856;19.030;2024-01-07T22:26:40;101820.13;;;-5.08;90.69
33949;BME280;20229;49.856;19.030;2024-01-07T22:31:57;101811.15;;;-5.11;90.42
33949;BME280;20229;49.856;19.030;2024-01-07T22:37:11;101820.01;;;-5.12;90.09
33949;BME280;20229;49.856;19.030;2024-01-07T22:42:25;101834.08;;;-5.16;90.20
33949;BME280;20229;49.856;19.030;2024-01-07T22:47:39;101841.23;;;-5.15;90.48
33949;BME280;20229;49.856;19.030;2024-01-07T22:52:53;101835.90;;;-5.15;90.65
33949;BME280;20229;49.856;19.030;2024-01-07T22:58:07;101831.48;;;-5.15;90.80
33949;BME280;20229;49.856;19.030;2024-01-07T23:03:21;101834.95;;;-5.17;90.32
33949;BME280;20229;49.856;19.030;2024-01-07T23:08:35;101844.68;;;-5.19;91.05
33949;BME280;20229;49.856;19.030;2024-01-07T23:13:49;101851.79;;;-5.18;90.76
33949;BME280;20229;49.856;19.030;2024-01-07T23:19:04;101856.16;;;-5.20;90.68
33949;BME280;20229;49.856;19.030;2024-01-07T23:24:18;101869.47;;;-5.20;90.79
33949;BME280;20229;49.856;19.030;2024-01-07T23:29:34;101869.39;;;-5.23;90.64
33949;BME280;20229;49.856;19.030;2024-01-07T23:34:53;101867.51;;;-5.27;90.71
33949;BME280;20229;49.856;19.030;2024-01-07T23:40:08;101876.30;;;-5.30;90.89
33949;BME280;20229;49.856;19.030;2024-01-07T23:45:22;101883.30;;;-5.34;90.80
33949;BME280;20229;49.856;19.030;2024-01-07T23:50:36;101882.31;;;-5.37;91.13
33949;BME280;20229;49.856;19.030;2024-01-07T23:55:50;101892.91;;;-5.40;91.46
